createdAt,value
2022-11-14T00:02:32.730Z,24.77
2022-11-14T00:08:24.688Z,26.30
2022-11-14T00:14:07.708Z,26.42
2022-11-14T00:19:50.681Z,32.85
2022-11-14T00:25:37.702Z,36.40
2022-11-14T00:31:21.771Z,26.17
2022-11-14T00:37:04.724Z,20.70
2022-11-14T00:42:51.717Z,18.30
2022-11-14T00:48:34.749Z,20.88
2022-11-14T00:54:17.729Z,22.23
2022-11-14T01:00:09.702Z,25.05
2022-11-14T01:05:55.712Z,29.05
2022-11-14T01:11:38.717Z,30.70
2022-11-14T01:17:24.721Z,29.33
2022-11-14T01:23:07.712Z,24.17
2022-11-14T01:28:52.012Z,20.85
2022-11-14T01:34:38.736Z,18.10
2022-11-14T01:40:22.720Z,17.73
2022-11-14T01:46:11.729Z,21.92
2022-11-14T01:52:01.701Z,26.17
2022-11-14T01:57:47.747Z,16.70
2022-11-14T02:03:30.741Z,15.27
2022-11-14T02:09:18.733Z,17.83
2022-11-14T02:15:05.779Z,21.08
2022-11-14T02:20:55.068Z,23.88
2022-11-14T02:26:38.755Z,30.27
2022-11-14T02:32:22.760Z,21.33
2022-11-14T02:38:08.761Z,16.05
2022-11-14T02:43:52.741Z,12.98
2022-11-14T02:49:35.974Z,11.48
2022-11-14T02:55:22.737Z,15.02
2022-11-14T03:01:20.967Z,14.27
2022-11-14T03:07:04.832Z,13.88
2022-11-14T03:12:50.774Z,15.25
2022-11-14T03:18:33.754Z,22.88
2022-11-14T03:24:16.766Z,24.42
2022-11-14T03:30:02.785Z,25.83
2022-11-14T03:35:45.768Z,22.20
2022-11-14T03:41:28.751Z,19.17
2022-11-14T03:47:14.766Z,22.05
2022-11-14T03:52:58.773Z,28.85
2022-11-14T03:58:41.760Z,27.17
2022-11-14T04:04:28.159Z,25.55
2022-11-14T04:10:10.785Z,23.55
2022-11-14T04:15:53.811Z,24.35
2022-11-14T04:21:39.888Z,22.48
2022-11-14T04:27:23.763Z,27.02
2022-11-14T04:33:06.774Z,24.33
2022-11-14T04:38:52.797Z,23.40
2022-11-14T04:44:35.775Z,23.00
2022-11-14T04:50:21.163Z,24.25
2022-11-14T04:56:06.785Z,23.77
2022-11-14T05:01:55.870Z,26.23
2022-11-14T05:07:38.828Z,25.98
2022-11-14T05:13:23.787Z,21.75
2022-11-14T05:19:06.804Z,25.00
2022-11-14T05:24:49.803Z,30.75
2022-11-14T05:30:35.857Z,36.90
2022-11-14T05:36:19.829Z,35.45
2022-11-14T05:42:03.084Z,33.67
2022-11-14T05:47:48.879Z,31.90
2022-11-14T05:53:31.888Z,31.25
2022-11-14T05:59:14.869Z,31.70
2022-11-14T06:05:00.831Z,37.17
2022-11-14T06:10:43.988Z,40.25
2022-11-14T06:16:28.839Z,47.25
2022-11-14T06:22:14.854Z,51.17
2022-11-14T06:27:57.900Z,51.65
2022-11-14T06:33:41.867Z,51.00
2022-11-14T06:39:28.877Z,49.03
2022-11-14T06:45:12.846Z,49.80
2022-11-14T06:51:01.864Z,49.97
2022-11-14T06:56:46.869Z,47.83
2022-11-14T07:02:36.070Z,49.15
2022-11-14T07:08:21.227Z,45.72
2022-11-14T07:14:07.887Z,45.13
2022-11-14T07:19:50.895Z,44.20
2022-11-14T07:25:33.889Z,44.15
2022-11-14T07:31:21.887Z,43.65
2022-11-14T07:37:04.855Z,41.72
2022-11-14T07:42:47.870Z,38.88
2022-11-14T07:48:36.857Z,37.30
2022-11-14T07:54:20.864Z,36.45
2022-11-14T08:00:03.911Z,30.98
2022-11-14T08:05:50.887Z,29.42
2022-11-14T08:11:46.914Z,26.00
2022-11-14T08:17:30.004Z,24.17
2022-11-14T08:23:20.912Z,23.25
2022-11-14T08:29:04.910Z,22.73
2022-11-14T08:34:47.928Z,20.48
2022-11-14T08:40:34.912Z,19.05
2022-11-14T08:46:19.926Z,18.02
2022-11-14T08:52:02.929Z,16.85
2022-11-14T08:57:49.839Z,15.85
2022-11-14T09:03:39.040Z,15.50
2022-11-14T09:09:21.928Z,11.95
2022-11-14T09:15:06.929Z,12.15
2022-11-14T09:20:51.117Z,15.32
2022-11-14T09:26:33.917Z,15.30
2022-11-14T09:32:19.901Z,14.63
2022-11-14T09:38:02.937Z,13.40
2022-11-14T09:44:03.911Z,12.32
2022-11-14T09:49:53.949Z,11.18
2022-11-14T09:55:38.930Z,8.15
2022-11-14T10:01:40.000Z,6.53
2022-11-14T10:07:37.979Z,6.30
2022-11-14T10:13:33.208Z,5.47
2022-11-14T10:19:30.657Z,5.38
2022-11-14T10:25:44.003Z,4.85
2022-11-14T10:31:37.956Z,4.45
2022-11-14T10:37:31.956Z,4.03
2022-11-14T10:43:30.970Z,4.30
2022-11-14T10:49:15.947Z,3.42
2022-11-14T10:55:06.995Z,3.47
2022-11-14T11:00:59.009Z,3.47
2022-11-14T11:06:42.957Z,3.20
2022-11-14T11:12:32.048Z,3.10
2022-11-14T11:18:35.201Z,3.00
2022-11-14T11:24:17.975Z,2.83
2022-11-14T11:30:15.217Z,2.85
2022-11-14T11:36:05.986Z,2.65
2022-11-14T11:42:08.738Z,2.40
2022-11-14T11:47:53.990Z,2.42
2022-11-14T11:53:45.008Z,2.25
2022-11-14T11:59:43.007Z,2.40
2022-11-14T12:05:32.990Z,2.38
2022-11-14T12:11:21.022Z,1.90
2022-11-14T12:17:24.999Z,2.10
2022-11-14T12:23:43.981Z,2.17
2022-11-14T12:29:54.078Z,1.98
2022-11-14T12:35:39.986Z,2.10
2022-11-14T12:41:34.012Z,1.80
2022-11-14T12:47:35.015Z,1.80
2022-11-14T12:53:49.000Z,2.10
2022-11-14T12:59:45.029Z,1.83
2022-11-14T13:05:54.043Z,2.00
2022-11-14T13:12:09.180Z,1.80
2022-11-14T13:18:16.040Z,1.75
2022-11-14T13:24:16.070Z,1.70
2022-11-14T13:29:59.085Z,2.10
2022-11-14T13:36:12.077Z,1.70
2022-11-14T13:42:31.310Z,1.73
2022-11-14T13:48:42.501Z,1.80
2022-11-14T13:54:28.086Z,1.80
2022-11-14T14:00:26.049Z,1.90
2022-11-14T14:06:22.287Z,1.70
2022-11-14T14:12:34.109Z,1.80
2022-11-14T14:18:32.370Z,1.70
2022-11-14T14:24:28.087Z,1.70
2022-11-14T14:30:17.123Z,1.88
2022-11-14T14:36:09.086Z,1.75
2022-11-14T14:47:49.091Z,1.90
2022-11-14T14:53:37.077Z,1.67
2022-11-14T14:59:32.102Z,1.80
2022-11-14T15:05:16.117Z,1.80
2022-11-14T15:11:02.072Z,2.00
2022-11-14T15:16:45.088Z,1.80
2022-11-14T15:22:42.110Z,1.83
2022-11-14T15:28:31.393Z,2.00
2022-11-14T15:34:20.109Z,2.10
2022-11-14T15:40:03.165Z,1.85
2022-11-14T15:45:56.129Z,2.25
2022-11-14T15:51:54.106Z,2.30
2022-11-14T15:57:37.136Z,2.53
2022-11-14T16:03:27.203Z,2.63
2022-11-14T16:09:11.172Z,2.70
2022-11-14T16:14:55.129Z,2.90
2022-11-14T16:20:46.146Z,3.20
2022-11-14T16:26:29.167Z,2.83
2022-11-14T16:32:12.127Z,3.10
2022-11-14T16:37:58.143Z,3.28
2022-11-14T16:43:41.150Z,3.20
2022-11-14T16:49:28.467Z,3.40
2022-11-14T16:55:14.128Z,3.40
2022-11-14T17:00:57.266Z,3.78
2022-11-14T17:06:40.144Z,3.85
2022-11-14T17:12:26.185Z,3.97
2022-11-14T17:18:09.205Z,4.25
2022-11-14T17:23:58.234Z,4.22
2022-11-14T17:29:44.174Z,4.55
2022-11-14T17:35:29.376Z,4.43
2022-11-14T17:46:36.216Z,4.47
2022-11-14T17:52:20.175Z,4.82
2022-11-14T17:58:03.233Z,4.80
2022-11-14T18:04:01.627Z,4.57
2022-11-14T18:09:49.230Z,4.87
2022-11-14T18:15:34.775Z,4.90
2022-11-14T18:21:23.271Z,5.10
2022-11-14T18:27:08.575Z,4.97
2022-11-14T18:32:51.444Z,5.32
2022-11-14T18:38:37.209Z,5.07
2022-11-14T18:44:22.194Z,5.57
2022-11-14T18:50:06.212Z,5.30
2022-11-14T18:55:52.222Z,5.70
2022-11-14T19:01:38.318Z,5.18
2022-11-14T19:07:22.675Z,5.90
2022-11-14T19:13:07.255Z,5.50
2022-11-14T19:18:50.186Z,5.70
2022-11-14T19:24:34.207Z,5.70
2022-11-14T19:30:21.204Z,6.15
2022-11-14T19:36:05.230Z,6.47
2022-11-14T19:41:48.455Z,9.82
2022-11-14T19:47:34.332Z,6.80
2022-11-14T19:53:17.236Z,6.65
2022-11-14T19:59:03.315Z,6.50
2022-11-14T20:04:57.254Z,5.75
2022-11-14T20:10:54.291Z,6.70
2022-11-14T20:16:39.220Z,5.55
2022-11-14T20:22:26.254Z,6.28
2022-11-14T20:28:09.255Z,6.05
2022-11-14T20:33:57.343Z,6.03
2022-11-14T20:39:45.262Z,6.18
2022-11-14T20:45:29.302Z,5.93
2022-11-14T20:51:24.272Z,5.95
2022-11-14T20:57:11.267Z,5.95
2022-11-14T21:03:02.240Z,5.70
2022-11-14T21:08:45.254Z,5.43
2022-11-14T21:14:31.301Z,5.85
2022-11-14T21:20:15.265Z,5.70
2022-11-14T21:25:58.342Z,5.97
2022-11-14T21:31:46.318Z,5.97
2022-11-14T21:37:29.312Z,6.10
2022-11-14T21:43:12.262Z,5.80
2022-11-14T21:48:58.280Z,5.60
2022-11-14T21:54:41.302Z,6.03
2022-11-14T22:00:26.325Z,5.60
2022-11-14T22:11:35.297Z,5.05
2022-11-14T22:17:18.285Z,5.65
2022-11-14T22:23:01.283Z,5.50
2022-11-14T22:28:47.301Z,5.03
2022-11-14T22:34:30.373Z,5.13
2022-11-14T22:40:14.304Z,5.22
2022-11-14T22:46:07.307Z,5.10
2022-11-14T22:51:51.320Z,5.55
2022-11-14T22:57:34.356Z,5.40
2022-11-14T23:03:31.916Z,5.57
2022-11-14T23:09:14.371Z,5.10
2022-11-14T23:14:57.340Z,5.15
2022-11-14T23:20:43.335Z,5.30
2022-11-14T23:26:28.332Z,5.00
2022-11-14T23:32:11.645Z,5.20
2022-11-14T23:37:57.313Z,4.60
2022-11-14T23:43:46.348Z,4.43
2022-11-14T23:49:29.330Z,4.18
2022-11-14T23:55:14.330Z,4.00
